• Join FlightAware (Why Join?)
  • Login
  • US Flag 
03:54PM EDT


 

Airport Tracker/Info


-or-


 

Live Flight TrackerFlight Track Log ✈ SWA2852 ✈ 21-Apr-2013 ✈ KMCO - KROC

Flight Track Log - Related Links

Times and Time Zones

All times are in EDT time to prevent confusion due to time zone crossing. See the SWA2852 flight status page for this flight to view local times or setup timezone preferences in your user account.

Time Position Orientation Groundspeed Altitude Reporting Facility
EDT Latitude Longitude Course Direction KTS MPH feet Rate Location/Type
12:59PM 28.4333 -81.3000 24° Northeast 164 189 800  Level Orlando TRACON
01:00PM 28.4667 -81.2833 24° Northeast 201 231 1,700 2,520 Climbing Orlando TRACON
01:01PM 28.5167 -81.2667 16° North 214 246 4,900 2,580 Climbing Orlando TRACON
01:02PM 28.5833 -81.2333 24° Northeast 267 307 7,000 2,220 Climbing Orlando TRACON
01:03PM 28.6500 -81.1833 33° Northeast 283 326 9,400 3,000 Climbing Orlando TRACON
01:04PM 28.7333 -81.1833 360° North 302 348 13,000 3,420 Climbing Orlando TRACON
01:05PM 28.7833 -81.2333 319° Northwest 276 318 15,900 1,200 Climbing Orlando TRACON
01:07PM 28.9164 -81.2914 339° North 342 394 16,100 660 Climbing Jacksonville Center
01:08PM 29.0003 -81.3375 334° Northwest 336 387 17,800 1,800 Climbing Jacksonville Center
01:09PM 29.0969 -81.3858 336° Northwest 352 405 19,800 2,460 Climbing Jacksonville Center
01:10PM 29.2078 -81.4008 353° North 385 443 22,800 2,460 Climbing Jacksonville Center
01:11PM 29.3247 -81.4158 354° North 399 459 24,800 2,100 Climbing Jacksonville Center
01:12PM 29.4586 -81.4258 356° North 424 488 27,100 2,040 Climbing Jacksonville Center
01:13PM 29.5819 -81.4383 355° North 434 499 28,900 1,740 Climbing Jacksonville Center
01:14PM 29.7092 -81.4483 356° North 446 513 30,700 1,980 Climbing Jacksonville Center
01:15PM 29.8347 -81.4631 354° North 453 521 32,900 1,920 Climbing Jacksonville Center
01:16PM 29.9619 -81.4614 North 453 521 34,600 1,620 Climbing Jacksonville Center
01:17PM 30.0853 -81.4594 North 448 516 36,200 1,800 Climbing Jacksonville Center
01:18PM 30.2083 -81.4553 North 438 504 38,200 1,320 Climbing Jacksonville Center
01:19PM 30.3272 -81.4511 North 433 498 38,900 360 Climbing Jacksonville Center
01:20PM 30.4525 -81.4492 North 433 498 39,000  Climbing Jacksonville Center
01:21PM 30.5736 -81.4497 360° North 439 505 39,000  Level Jacksonville Center
01:22PM 30.7008 -81.4478 North 439 505 39,000  Level Jacksonville Center
01:23PM 30.8261 -81.4458 North 439 505 39,000  Level Jacksonville Center
01:24PM 30.9514 -81.4439 North 439 505 39,000  Level Jacksonville Center
01:25PM 31.0747 -81.4422 North 444 511 39,000  Level Jacksonville Center
01:26PM 31.2019 -81.4328 North 437 503 39,000  Level Jacksonville Center
01:27PM 31.3311 -81.4211 North 459 528 39,000  Level Jacksonville Center
01:28PM 31.4456 -81.3875 14° North 470 541 39,000  Level Jacksonville Center
01:29PM 31.5872 -81.3511 12° North 464 534 39,000  Level Jacksonville Center
01:30PM 31.7036 -81.3200 13° North 469 540 39,000  Level Jacksonville Center
01:31PM 31.8411 -81.2833 13° North 469 540 39,000  Level Jacksonville Center
01:32PM 31.9597 -81.2494 14° North 469 540 39,000  Level Jacksonville Center
01:33PM 32.0844 -81.2153 13° North 469 540 39,000  Level Jacksonville Center
01:34PM 32.2094 -81.1933 North 463 533 39,000  Level Jacksonville Center
01:35PM 32.3386 -81.1836 North 463 533 39,000  Level Jacksonville Center
01:36PM 32.4806 -81.1736 North 458 527 39,000  Level Jacksonville Center
01:37PM 32.6097 -81.1564 North 459 528 39,000  Level Jacksonville Center
01:38PM 32.7242 -81.1369 North 465 535 39,000  Level Jacksonville Center
01:39PM 32.8514 -81.1172 North 465 535 39,000  Level Jacksonville Center
01:40PM 32.9847 -81.0947 North 465 535 39,000  Level Jacksonville Center
01:41PM 33.1158 -81.0772 North 465 535 39,000  Level Jacksonville Center
01:42PM 33.2428 -81.0572 North 459 528 39,000  Level Jacksonville Center
01:43PM 33.3742 -81.0344 North 465 535 39,000  Level Jacksonville Center
01:44PM 33.5031 -81.0144 North 470 541 39,000  Level Jacksonville Center
01:45PM 33.7372 -80.9764 North 469 540 39,000  Level Atlanta Center
01:46PM 33.8683 -80.9542 North 464 534 39,000  Level Atlanta Center
01:47PM 33.9931 -80.9344 North 464 534 39,000  Level Atlanta Center
01:48PM 34.1197 -80.9147 North 464 534 39,000  Level Atlanta Center
01:49PM 34.2422 -80.8928 North 459 528 39,000  Level Atlanta Center
01:50PM 34.3733 -80.8778 North 459 528 39,000  Level Atlanta Center
01:51PM 34.4897 -80.8558 North 464 534 39,000  Level Atlanta Center
01:52PM 34.6167 -80.8383 North 464 534 39,000  Level Atlanta Center
01:53PM 34.7433 -80.8183 North 459 528 39,000  Level Atlanta Center
01:54PM 34.8742 -80.7906 10° North 464 534 39,000  Level Atlanta Center
01:55PM 35.0022 -80.7475 15° North 464 534 39,000  Level Atlanta Center
01:56PM 35.1325 -80.7042 15° North 475 547 39,000  Level Atlanta Center
01:57PM 35.2628 -80.6583 16° North 475 547 39,000  Level Atlanta Center
01:58PM 35.3908 -80.6147 16° North 475 547 39,000  Level Atlanta Center
01:59PM 35.5231 -80.5686 16° North 475 547 39,000  Level Atlanta Center
02:00PM 35.6514 -80.5247 16° North 475 547 39,000  Level Atlanta Center
02:01PM 35.7939 -80.4800 14° North 475 547 39,000  Level Atlanta Center
02:02PM 35.9178 -80.4311 18° North 469 540 39,000  Level Atlanta Center
02:03PM 36.0375 -80.3925 15° North 469 540 39,000  Level Atlanta Center
02:04PM 36.1697 -80.3478 15° North 474 545 39,000  Level Atlanta Center
02:05PM 36.2978 -80.3058 15° North 474 545 39,000  Level Atlanta Center
02:06PM 36.4422 -80.2553 16° North 479 551 39,000  Level Atlanta Center
02:09PM 36.7325 -80.1558 15° North 486 559 39,000  Level Washington Center
02:10PM 36.8617 -80.1089 16° North 481 554 39,000  Level Washington Center
02:11PM 36.9800 -80.0692 15° North 481 554 39,000  Level Washington Center
02:12PM 37.1089 -80.0244 15° North 481 554 39,000  Level Washington Center
02:13PM 37.2356 -79.9797 16° North 476 548 39,000  Level Washington Center
02:14PM 37.3667 -79.9350 15° North 476 548 39,000  Level Washington Center
02:15PM 37.4956 -79.8900 15° North 481 554 39,000  Level Washington Center
02:16PM 37.6372 -79.8350 17° North 481 554 39,000  Level Washington Center
02:17PM 37.7575 -79.7972 14° North 487 560 39,000  Level Washington Center
02:18PM 37.8989 -79.7472 16° North 487 560 39,000  Level Washington Center
02:19PM 38.0319 -79.6992 16° North 487 560 39,000  Level Washington Center
02:20PM 38.1589 -79.6506 17° North 482 555 39,000  Level Washington Center
02:21PM 38.2875 -79.6047 16° North 482 555 39,000  Level Washington Center
02:22PM 38.4058 -79.5633 15° North 488 562 39,000  Level Washington Center
02:23PM 38.5344 -79.5147 16° North 488 562 39,000  Level Washington Center
02:24PM 38.6633 -79.4683 16° North 488 562 39,000  Level Washington Center
02:25PM 38.8028 -79.4089 18° North 488 562 39,000  Level Washington Center
02:26PM 38.9336 -79.3625 15° North 488 562 39,000  Level Washington Center
02:27PM 39.0664 -79.3158 15° North 488 562 39,000  Level Washington Center
02:28PM 39.1931 -79.2661 17° North 483 556 39,000  Level Washington Center
02:29PM 39.4247 -79.1778 16° North 479 551 39,000  Level Cleveland Center
02:30PM 39.5533 -79.1267 17° North 474 545 39,000  Level Cleveland Center
02:31PM 39.6819 -79.0778 16° North 474 545 39,000  Level Cleveland Center
02:32PM 39.8022 -79.0319 16° North 474 545 39,000  Level Cleveland Center
02:33PM 39.9289 -78.9831 16° North 479 551 39,000  Level Cleveland Center
02:34PM 40.0678 -78.9283 17° North 474 545 39,000  Level Cleveland Center
02:35PM 40.1961 -78.8761 17° North 474 545 39,000 -780 Level Cleveland Center
02:36PM 40.3142 -78.8294 17° North 474 545 37,500 -1,620 Descending Cleveland Center
02:37PM 40.4408 -78.7825 16° North 474 545 35,800 -1,740 Descending Cleveland Center
02:38PM 40.5692 -78.7300 17° North 474 545 34,100 -1,440 Descending Cleveland Center
02:39PM 40.6933 -78.6797 17° North 474 545 33,000 -960 Descending Cleveland Center
02:40PM 40.8258 -78.6267 17° North 474 545 32,200 -900 Descending Cleveland Center
02:41PM 40.9564 -78.5761 16° North 479 551 31,200 -1,020 Descending Cleveland Center
02:42PM 41.0828 -78.5253 17° North 479 551 30,200 -1,080 Descending Cleveland Center
02:43PM 41.2047 -78.4744 17° North 466 536 29,100 -1,080 Descending Cleveland Center
02:44PM 41.3247 -78.4264 17° North 461 531 28,100 -600 Descending Cleveland Center
02:45PM 41.4550 -78.3722 17° North 446 513 28,000 -600 Descending Cleveland Center
02:46PM 41.5731 -78.3239 17° North 440 506 26,900 -1,080 Descending Cleveland Center
02:47PM 41.6867 -78.2753 18° North 435 501 25,900 -1,020 Descending Cleveland Center
02:48PM 41.7983 -78.2294 17° North 430 495 24,900 -1,020 Descending Cleveland Center
02:49PM 41.9078 -78.1836 17° North 420 483 23,900 -1,020 Descending Cleveland Center
02:50PM 42.0175 -78.1433 15° North 415 478 22,900 -1,020 Descending Cleveland Center
02:51PM 42.1228 -78.0972 18° North 409 471 21,900 -1,380 Descending Cleveland Center
02:52PM 42.2242 -78.0539 18° North 391 450 20,200 -1,920 Descending Cleveland Center
02:53PM 42.3211 -78.0136 17° North 378 435 18,100 -2,220 Descending Cleveland Center
02:54PM 42.4203 -77.9731 17° North 366 421 15,800 -2,460 Descending Cleveland Center
02:55PM 42.5214 -77.9294 18° North 366 421 13,200 -2,400 Descending Cleveland Center
02:56PM 42.6103 -77.8917 17° North 361 415 11,100 -1,500 Descending Cleveland Center
02:57PM 42.6933 -77.8797 North 280 322 10,300 -1,440 Descending Cleveland Center
02:58PM 42.7767 -77.8847 357° North 271 312 8,200 -1,980 Descending Cleveland Center
02:59PM 42.8456 -77.8903 357° North 271 312 6,400 -1,860 Descending Cleveland Center
03:00PM 42.9136 -77.8503 23° Northeast 252 290 4,500 -1,320 Descending Cleveland Center
03:01PM 42.9647 -77.8083 31° Northeast 210 242 3,900 -780 Descending Cleveland Center
03:02PM 43.0094 -77.7694 32° Northeast 210 242 3,000 -1,020 Descending Cleveland Center
03:03PM 43.0567 -77.7303 31° Northeast 164 189 1,800 -900 Descending Cleveland Center
03:04PM 43.0831 -77.7064 33° Northeast 157 181 1,200 -660 Descending Cleveland Center
03:06PM 43.1167 -77.6667 10° North  Level FlightAware Approximate
03:13PM 43.1191 -77.6719 10° North  Level Estimated
03:14PM 43.1167 -77.6667 10° North  Level FlightAware Approximate